sensor_id;sensor_type;location;lat;lon;timestamp;temperature;humidity
24664;DHT22;12791;50.992;13.788;2023-02-19T00:01:45;10.10;99.90
24664;DHT22;12791;50.992;13.788;2023-02-19T00:04:13;10.10;99.90
24664;DHT22;12791;50.992;13.788;2023-02-19T00:06:40;10.10;99.90
24664;DHT22;12791;50.992;13.788;2023-02-19T00:09:09;10.10;99.90
24664;DHT22;12791;50.992;13.788;2023-02-19T00:11:36;10.10;99.90
24664;DHT22;12791;50.992;13.788;2023-02-19T00:14:03;10.10;99.90
24664;DHT22;12791;50.992;13.788;2023-02-19T00:16:33;10.10;99.90
24664;DHT22;12791;50.992;13.788;2023-02-19T00:19:02;9.80;99.90
24664;DHT22;12791;50.992;13.788;2023-02-19T00:21:29;10.20;99.90
24664;DHT22;12791;50.992;13.788;2023-02-19T00:23:57;10.10;99.90
24664;DHT22;12791;50.992;13.788;2023-02-19T00:26:25;10.00;99.90
24664;DHT22;12791;50.992;13.788;2023-02-19T00:28:52;10.10;99.90
24664;DHT22;12791;50.992;13.788;2023-02-19T00:31:21;10.10;99.90
24664;DHT22;12791;50.992;13.788;2023-02-19T00:33:51;10.10;99.90
24664;DHT22;12791;50.992;13.788;2023-02-19T00:36:19;10.00;99.90
24664;DHT22;12791;50.992;13.788;2023-02-19T00:38:46;10.00;99.90
24664;DHT22;12791;50.992;13.788;2023-02-19T00:41:13;10.00;99.90
24664;DHT22;12791;50.992;13.788;2023-02-19T00:43:49;10.10;99.90
24664;DHT22;12791;50.992;13.788;2023-02-19T00:46:17;10.00;99.90
24664;DHT22;12791;50.992;13.788;2023-02-19T00:48:44;10.00;99.90
24664;DHT22;12791;50.992;13.788;2023-02-19T00:51:12;10.00;99.90
24664;DHT22;12791;50.992;13.788;2023-02-19T00:53:39;10.00;99.90
24664;DHT22;12791;50.992;13.788;2023-02-19T00:56:07;10.00;99.90
24664;DHT22;12791;50.992;13.788;2023-02-19T00:58:34;10.00;99.90
24664;DHT22;12791;50.992;13.788;2023-02-19T01:01:00;10.00;99.90
24664;DHT22;12791;50.992;13.788;2023-02-19T01:03:27;10.00;99.90
24664;DHT22;12791;50.992;13.788;2023-02-19T01:05:54;10.00;99.90
24664;DHT22;12791;50.992;13.788;2023-02-19T01:08:22;10.00;99.90
24664;DHT22;12791;50.992;13.788;2023-02-19T01:10:48;10.00;99.90
24664;DHT22;12791;50.992;13.788;2023-02-19T01:13:16;10.00;99.90
24664;DHT22;12791;50.992;13.788;2023-02-19T01:15:42;9.90;99.90
24664;DHT22;12791;50.992;13.788;2023-02-19T01:18:09;10.00;99.90
24664;DHT22;12791;50.992;13.788;2023-02-19T01:20:37;10.00;99.90
24664;DHT22;12791;50.992;13.788;2023-02-19T01:23:04;10.00;99.90
24664;DHT22;12791;50.992;13.788;2023-02-19T01:25:32;10.00;99.90
24664;DHT22;12791;50.992;13.788;2023-02-19T01:27:59;10.00;99.90
24664;DHT22;12791;50.992;13.788;2023-02-19T01:30:26;9.80;99.90
24664;DHT22;12791;50.992;13.788;2023-02-19T01:32:52;10.00;99.90
24664;DHT22;12791;50.992;13.788;2023-02-19T01:35:19;10.00;99.90
24664;DHT22;12791;50.992;13.788;2023-02-19T01:37:45;10.10;99.90
24664;DHT22;12791;50.992;13.788;2023-02-19T01:40:12;9.90;99.90
24664;DHT22;12791;50.992;13.788;2023-02-19T01:42:43;10.00;99.90
24664;DHT22;12791;50.992;13.788;2023-02-19T01:45:26;9.90;99.90
24664;DHT22;12791;50.992;13.788;2023-02-19T01:48:07;9.90;99.90
24664;DHT22;12791;50.992;13.788;2023-02-19T01:50:37;9.70;99.90
24664;DHT22;12791;50.992;13.788;2023-02-19T01:53:08;9.90;99.90
24664;DHT22;12791;50.992;13.788;2023-02-19T01:55:37;10.10;99.90
24664;DHT22;12791;50.992;13.788;2023-02-19T01:58:07;9.80;99.90
24664;DHT22;12791;50.992;13.788;2023-02-19T02:00:35;9.80;99.90
24664;DHT22;12791;50.992;13.788;2023-02-19T02:03:03;9.80;99.90
24664;DHT22;12791;50.992;13.788;2023-02-19T02:05:47;9.80;99.90
24664;DHT22;12791;50.992;13.788;2023-02-19T02:08:17;9.90;99.90
24664;DHT22;12791;50.992;13.788;2023-02-19T02:11:01;9.80;99.90
24664;DHT22;12791;50.992;13.788;2023-02-19T02:13:29;9.80;99.90
24664;DHT22;12791;50.992;13.788;2023-02-19T02:16:05;9.80;99.90
24664;DHT22;12791;50.992;13.788;2023-02-19T02:18:40;9.70;99.90
24664;DHT22;12791;50.992;13.788;2023-02-19T02:21:29;9.80;99.90
24664;DHT22;12791;50.992;13.788;2023-02-19T02:24:10;9.70;99.90
24664;DHT22;12791;50.992;13.788;2023-02-19T02:26:45;9.70;99.90
24664;DHT22;12791;50.992;13.788;2023-02-19T02:29:30;9.60;99.90
24664;DHT22;12791;50.992;13.788;2023-02-19T02:32:07;10.00;99.90
24664;DHT22;12791;50.992;13.788;2023-02-19T02:34:42;9.70;99.90
24664;DHT22;12791;50.992;13.788;2023-02-19T02:37:11;9.70;99.90
24664;DHT22;12791;50.992;13.788;2023-02-19T02:39:40;9.90;99.90
24664;DHT22;12791;50.992;13.788;2023-02-19T02:42:07;9.60;99.90
24664;DHT22;12791;50.992;13.788;2023-02-19T02:44:51;9.50;99.90
24664;DHT22;12791;50.992;13.788;2023-02-19T02:47:37;9.60;99.90
24664;DHT22;12791;50.992;13.788;2023-02-19T02:50:12;9.60;99.90
24664;DHT22;12791;50.992;13.788;2023-02-19T02:52:42;9.60;99.90
24664;DHT22;12791;50.992;13.788;2023-02-19T02:55:30;9.50;99.90
24664;DHT22;12791;50.992;13.788;2023-02-19T02:57:57;9.50;99.90
24664;DHT22;12791;50.992;13.788;2023-02-19T03:00:24;9.50;99.90
24664;DHT22;12791;50.992;13.788;2023-02-19T03:03:14;9.50;99.90
24664;DHT22;12791;50.992;13.788;2023-02-19T03:05:42;9.50;99.90
24664;DHT22;12791;50.992;13.788;2023-02-19T03:08:23;9.50;99.90
24664;DHT22;12791;50.992;13.788;2023-02-19T03:10:53;9.50;99.90
24664;DHT22;12791;50.992;13.788;2023-02-19T03:13:25;9.50;99.90
24664;DHT22;12791;50.992;13.788;2023-02-19T03:16:16;9.50;99.90
24664;DHT22;12791;50.992;13.788;2023-02-19T03:19:03;9.40;99.90
24664;DHT22;12791;50.992;13.788;2023-02-19T03:21:49;9.40;99.90
24664;DHT22;12791;50.992;13.788;2023-02-19T03:24:18;9.40;99.90
24664;DHT22;12791;50.992;13.788;2023-02-19T03:27:07;8.90;99.90
24664;DHT22;12791;50.992;13.788;2023-02-19T03:29:37;9.40;99.90
24664;DHT22;12791;50.992;13.788;2023-02-19T03:32:09;9.50;99.90
24664;DHT22;12791;50.992;13.788;2023-02-19T03:34:43;9.30;99.90
24664;DHT22;12791;50.992;13.788;2023-02-19T03:37:13;9.40;99.90
24664;DHT22;12791;50.992;13.788;2023-02-19T03:39:41;9.40;99.90
24664;DHT22;12791;50.992;13.788;2023-02-19T03:42:16;9.40;99.90
24664;DHT22;12791;50.992;13.788;2023-02-19T03:44:52;9.50;99.90
24664;DHT22;12791;50.992;13.788;2023-02-19T03:47:27;9.60;99.90
24664;DHT22;12791;50.992;13.788;2023-02-19T03:49:58;9.60;99.90
24664;DHT22;12791;50.992;13.788;2023-02-19T03:52:35;9.40;99.90
24664;DHT22;12791;50.992;13.788;2023-02-19T03:55:05;9.40;99.90
24664;DHT22;12791;50.992;13.788;2023-02-19T03:57:42;9.20;99.90
24664;DHT22;12791;50.992;13.788;2023-02-19T04:00:13;9.30;99.90
24664;DHT22;12791;50.992;13.788;2023-02-19T04:02:46;9.50;99.90
24664;DHT22;12791;50.992;13.788;2023-02-19T04:05:16;9.20;99.90
24664;DHT22;12791;50.992;13.788;2023-02-19T04:07:47;9.20;99.90
24664;DHT22;12791;50.992;13.788;2023-02-19T04:10:16;9.20;99.90
24664;DHT22;12791;50.992;13.788;2023-02-19T04:12:48;9.10;99.90
24664;DHT22;12791;50.992;13.788;2023-02-19T04:15:18;9.20;99.90
24664;DHT22;12791;50.992;13.788;2023-02-19T04:17:52;9.10;99.90
24664;DHT22;12791;50.992;13.788;2023-02-19T04:20:21;9.10;99.90
24664;DHT22;12791;50.992;13.788;2023-02-19T04:22:50;9.10;99.90
24664;DHT22;12791;50.992;13.788;2023-02-19T04:25:17;9.10;99.90
24664;DHT22;12791;50.992;13.788;2023-02-19T04:27:44;8.80;99.90
24664;DHT22;12791;50.992;13.788;2023-02-19T04:30:15;9.10;99.90
24664;DHT22;12791;50.992;13.788;2023-02-19T04:32:42;9.10;99.90
24664;DHT22;12791;50.992;13.788;2023-02-19T04:35:08;9.10;99.90
24664;DHT22;12791;50.992;13.788;2023-02-19T04:37:36;9.10;99.90
24664;DHT22;12791;50.992;13.788;2023-02-19T04:40:03;9.10;99.90
24664;DHT22;12791;50.992;13.788;2023-02-19T04:42:30;9.10;99.90
24664;DHT22;12791;50.992;13.788;2023-02-19T04:44:56;9.10;99.90
24664;DHT22;12791;50.992;13.788;2023-02-19T04:47:23;9.10;99.90
24664;DHT22;12791;50.992;13.788;2023-02-19T04:49:50;9.20;99.90
24664;DHT22;12791;50.992;13.788;2023-02-19T04:52:16;9.20;99.90
24664;DHT22;12791;50.992;13.788;2023-02-19T04:54:44;9.20;99.90
24664;DHT22;12791;50.992;13.788;2023-02-19T04:57:11;9.20;99.90
24664;DHT22;12791;50.992;13.788;2023-02-19T04:59:37;9.20;99.90
24664;DHT22;12791;50.992;13.788;2023-02-19T05:02:04;9.20;99.90
24664;DHT22;12791;50.992;13.788;2023-02-19T05:04:30;9.20;99.90
24664;DHT22;12791;50.992;13.788;2023-02-19T05:06:57;9.30;99.90
24664;DHT22;12791;50.992;13.788;2023-02-19T05:09:24;9.20;99.90
24664;DHT22;12791;50.992;13.788;2023-02-19T05:11:52;9.20;99.90
24664;DHT22;12791;50.992;13.788;2023-02-19T05:14:18;8.80;99.90
24664;DHT22;12791;50.992;13.788;2023-02-19T05:16:45;9.20;99.90
24664;DHT22;12791;50.992;13.788;2023-02-19T05:19:11;9.30;99.90
24664;DHT22;12791;50.992;13.788;2023-02-19T05:21:38;9.30;99.90
24664;DHT22;12791;50.992;13.788;2023-02-19T05:24:05;9.20;99.90
24664;DHT22;12791;50.992;13.788;2023-02-19T05:26:32;9.30;99.90
24664;DHT22;12791;50.992;13.788;2023-02-19T05:29:00;9.20;99.90
24664;DHT22;12791;50.992;13.788;2023-02-19T05:31:27;9.10;99.90
24664;DHT22;12791;50.992;13.788;2023-02-19T05:33:54;8.90;99.90
24664;DHT22;12791;50.992;13.788;2023-02-19T05:36:21;8.90;99.90
24664;DHT22;12791;50.992;13.788;2023-02-19T05:38:51;9.00;99.90
24664;DHT22;12791;50.992;13.788;2023-02-19T05:41:20;8.80;99.90
24664;DHT22;12791;50.992;13.788;2023-02-19T05:43:48;9.00;99.90
24664;DHT22;12791;50.992;13.788;2023-02-19T05:46:18;8.80;99.90
24664;DHT22;12791;50.992;13.788;2023-02-19T05:48:45;8.80;99.90
24664;DHT22;12791;50.992;13.788;2023-02-19T05:51:13;8.80;99.90
24664;DHT22;12791;50.992;13.788;2023-02-19T05:53:41;8.90;99.90
24664;DHT22;12791;50.992;13.788;2023-02-19T05:56:23;8.80;99.90
24664;DHT22;12791;50.992;13.788;2023-02-19T05:58:51;8.80;99.90
24664;DHT22;12791;50.992;13.788;2023-02-19T06:01:22;8.90;99.90
24664;DHT22;12791;50.992;13.788;2023-02-19T06:03:48;8.90;99.90
24664;DHT22;12791;50.992;13.788;2023-02-19T06:06:16;9.00;99.90
24664;DHT22;12791;50.992;13.788;2023-02-19T06:08:43;8.90;99.90
24664;DHT22;12791;50.992;13.788;2023-02-19T06:11:10;8.90;99.90
24664;DHT22;12791;50.992;13.788;2023-02-19T06:13:37;8.90;99.90
24664;DHT22;12791;50.992;13.788;2023-02-19T06:16:04;8.90;99.90
24664;DHT22;12791;50.992;13.788;2023-02-19T06:18:32;8.90;99.90
24664;DHT22;12791;50.992;13.788;2023-02-19T06:21:00;9.10;99.90
24664;DHT22;12791;50.992;13.788;2023-02-19T06:23:26;8.90;99.90
24664;DHT22;12791;50.992;13.788;2023-02-19T06:25:53;8.90;99.90
24664;DHT22;12791;50.992;13.788;2023-02-19T06:28:20;9.00;99.90
24664;DHT22;12791;50.992;13.788;2023-02-19T06:30:46;9.10;99.90
24664;DHT22;12791;50.992;13.788;2023-02-19T06:33:13;9.00;99.90
24664;DHT22;12791;50.992;13.788;2023-02-19T06:35:41;9.00;99.90
24664;DHT22;12791;50.992;13.788;2023-02-19T06:38:07;9.00;99.90
24664;DHT22;12791;50.992;13.788;2023-02-19T06:40:34;8.90;99.90
24664;DHT22;12791;50.992;13.788;2023-02-19T06:43:00;9.00;99.90
24664;DHT22;12791;50.992;13.788;2023-02-19T06:45:27;9.00;99.90
24664;DHT22;12791;50.992;13.788;2023-02-19T06:47:53;9.00;99.90
24664;DHT22;12791;50.992;13.788;2023-02-19T06:50:20;9.00;99.90
24664;DHT22;12791;50.992;13.788;2023-02-19T06:52:48;9.00;99.90
24664;DHT22;12791;50.992;13.788;2023-02-19T06:55:15;8.80;99.90
24664;DHT22;12791;50.992;13.788;2023-02-19T06:57:41;9.00;99.90
24664;DHT22;12791;50.992;13.788;2023-02-19T07:00:09;8.80;99.90
24664;DHT22;12791;50.992;13.788;2023-02-19T07:02:36;9.10;99.90
24664;DHT22;12791;50.992;13.788;2023-02-19T07:05:03;9.00;99.90
24664;DHT22;12791;50.992;13.788;2023-02-19T07:07:29;8.90;99.90
24664;DHT22;12791;50.992;13.788;2023-02-19T07:09:57;8.90;99.90
24664;DHT22;12791;50.992;13.788;2023-02-19T07:12:24;8.70;99.90
24664;DHT22;12791;50.992;13.788;2023-02-19T07:14:50;8.80;99.90
24664;DHT22;12791;50.992;13.788;2023-02-19T07:17:17;8.80;99.90
24664;DHT22;12791;50.992;13.788;2023-02-19T07:19:44;8.90;99.90
24664;DHT22;12791;50.992;13.788;2023-02-19T07:22:10;8.80;99.90
24664;DHT22;12791;50.992;13.788;2023-02-19T07:24:37;8.80;99.90
24664;DHT22;12791;50.992;13.788;2023-02-19T07:27:04;8.60;99.90
24664;DHT22;12791;50.992;13.788;2023-02-19T07:29:31;8.80;99.90
24664;DHT22;12791;50.992;13.788;2023-02-19T07:31:58;8.90;99.90
24664;DHT22;12791;50.992;13.788;2023-02-19T07:34:24;9.00;99.90
24664;DHT22;12791;50.992;13.788;2023-02-19T07:36:51;8.90;99.90
24664;DHT22;12791;50.992;13.788;2023-02-19T07:39:18;8.90;99.90
24664;DHT22;12791;50.992;13.788;2023-02-19T07:41:44;8.90;99.90
24664;DHT22;12791;50.992;13.788;2023-02-19T07:44:12;9.00;99.90
24664;DHT22;12791;50.992;13.788;2023-02-19T07:46:41;8.80;99.90
24664;DHT22;12791;50.992;13.788;2023-02-19T07:49:07;8.80;99.90
24664;DHT22;12791;50.992;13.788;2023-02-19T07:51:34;8.70;99.90
24664;DHT22;12791;50.992;13.788;2023-02-19T07:54:01;8.70;99.90
24664;DHT22;12791;50.992;13.788;2023-02-19T07:56:27;8.50;99.90
24664;DHT22;12791;50.992;13.788;2023-02-19T07:58:54;8.40;99.90
24664;DHT22;12791;50.992;13.788;2023-02-19T08:01:22;8.20;99.90
24664;DHT22;12791;50.992;13.788;2023-02-19T08:04:12;8.10;99.90
24664;DHT22;12791;50.992;13.788;2023-02-19T08:06:38;7.90;99.90
24664;DHT22;12791;50.992;13.788;2023-02-19T08:09:05;7.80;99.90
24664;DHT22;12791;50.992;13.788;2023-02-19T08:11:31;7.70;99.90
24664;DHT22;12791;50.992;13.788;2023-02-19T08:14:16;7.70;99.90
24664;DHT22;12791;50.992;13.788;2023-02-19T08:16:48;7.70;99.90
24664;DHT22;12791;50.992;13.788;2023-02-19T08:19:15;7.70;99.90
24664;DHT22;12791;50.992;13.788;2023-02-19T08:21:42;7.60;99.90
24664;DHT22;12791;50.992;13.788;2023-02-19T08:24:09;7.60;99.90
24664;DHT22;12791;50.992;13.788;2023-02-19T08:26:36;7.60;99.90
24664;DHT22;12791;50.992;13.788;2023-02-19T08:29:02;7.60;99.90
24664;DHT22;12791;50.992;13.788;2023-02-19T08:31:29;7.60;99.90
24664;DHT22;12791;50.992;13.788;2023-02-19T08:33:57;7.50;99.90
24664;DHT22;12791;50.992;13.788;2023-02-19T08:36:24;7.50;99.90
24664;DHT22;12791;50.992;13.788;2023-02-19T08:38:51;7.40;99.90
24664;DHT22;12791;50.992;13.788;2023-02-19T08:41:20;7.50;99.90
24664;DHT22;12791;50.992;13.788;2023-02-19T08:43:47;7.30;99.90
24664;DHT22;12791;50.992;13.788;2023-02-19T08:46:13;7.20;99.90
24664;DHT22;12791;50.992;13.788;2023-02-19T08:48:40;6.50;99.90
24664;DHT22;12791;50.992;13.788;2023-02-19T08:51:09;6.90;99.90
24664;DHT22;12791;50.992;13.788;2023-02-19T08:53:37;6.90;99.90
24664;DHT22;12791;50.992;13.788;2023-02-19T08:56:05;7.00;99.90
24664;DHT22;12791;50.992;13.788;2023-02-19T08:58:32;6.70;99.90
24664;DHT22;12791;50.992;13.788;2023-02-19T09:00:59;6.60;99.90
24664;DHT22;12791;50.992;13.788;2023-02-19T09:03:26;6.80;99.90
24664;DHT22;12791;50.992;13.788;2023-02-19T09:05:52;6.30;99.90
24664;DHT22;12791;50.992;13.788;2023-02-19T09:08:20;6.70;99.90
24664;DHT22;12791;50.992;13.788;2023-02-19T09:10:56;6.40;99.90
24664;DHT22;12791;50.992;13.788;2023-02-19T09:13:23;6.50;99.90
24664;DHT22;12791;50.992;13.788;2023-02-19T09:15:49;6.50;99.90
24664;DHT22;12791;50.992;13.788;2023-02-19T09:18:16;6.10;99.90
24664;DHT22;12791;50.992;13.788;2023-02-19T09:20:42;6.50;99.90
24664;DHT22;12791;50.992;13.788;2023-02-19T09:23:09;6.40;99.90
24664;DHT22;12791;50.992;13.788;2023-02-19T09:25:37;6.30;99.90
24664;DHT22;12791;50.992;13.788;2023-02-19T09:28:03;6.00;99.90
24664;DHT22;12791;50.992;13.788;2023-02-19T09:30:30;6.10;99.90
24664;DHT22;12791;50.992;13.788;2023-02-19T09:32:57;5.80;99.90
24664;DHT22;12791;50.992;13.788;2023-02-19T09:35:23;5.70;99.90
24664;DHT22;12791;50.992;13.788;2023-02-19T09:37:50;5.60;99.90
24664;DHT22;12791;50.992;13.788;2023-02-19T09:40:17;5.50;99.90
24664;DHT22;12791;50.992;13.788;2023-02-19T09:42:48;5.50;99.90
24664;DHT22;12791;50.992;13.788;2023-02-19T09:45:20;5.60;99.90
24664;DHT22;12791;50.992;13.788;2023-02-19T09:47:47;5.60;99.90
24664;DHT22;12791;50.992;13.788;2023-02-19T09:50:17;5.70;99.90
24664;DHT22;12791;50.992;13.788;2023-02-19T09:52:48;5.50;99.90
24664;DHT22;12791;50.992;13.788;2023-02-19T09:55:24;5.50;99.90
24664;DHT22;12791;50.992;13.788;2023-02-19T09:57:55;5.30;99.90
24664;DHT22;12791;50.992;13.788;2023-02-19T10:00:24;5.10;99.90
24664;DHT22;12791;50.992;13.788;2023-02-19T10:02:52;5.20;99.90
24664;DHT22;12791;50.992;13.788;2023-02-19T10:05:20;5.10;99.90
24664;DHT22;12791;50.992;13.788;2023-02-19T10:07:50;5.10;99.90
24664;DHT22;12791;50.992;13.788;2023-02-19T10:10:23;4.80;99.90
24664;DHT22;12791;50.992;13.788;2023-02-19T10:12:53;5.10;99.90
24664;DHT22;12791;50.992;13.788;2023-02-19T10:15:28;5.10;99.90
24664;DHT22;12791;50.992;13.788;2023-02-19T10:17:56;5.10;99.90
24664;DHT22;12791;50.992;13.788;2023-02-19T10:20:24;5.40;99.90
24664;DHT22;12791;50.992;13.788;2023-02-19T10:22:58;5.50;99.90
24664;DHT22;12791;50.992;13.788;2023-02-19T10:25:25;5.60;99.90
24664;DHT22;12791;50.992;13.788;2023-02-19T10:27:56;5.60;99.90
24664;DHT22;12791;50.992;13.788;2023-02-19T10:30:28;5.90;99.90
24664;DHT22;12791;50.992;13.788;2023-02-19T10:32:59;6.10;99.90
24664;DHT22;12791;50.992;13.788;2023-02-19T10:35:26;6.10;99.90
24664;DHT22;12791;50.992;13.788;2023-02-19T10:37:54;6.60;99.90
24664;DHT22;12791;50.992;13.788;2023-02-19T10:40:22;6.40;99.90
24664;DHT22;12791;50.992;13.788;2023-02-19T10:42:52;6.30;99.90
24664;DHT22;12791;50.992;13.788;2023-02-19T10:45:22;6.30;99.90
24664;DHT22;12791;50.992;13.788;2023-02-19T10:47:50;6.30;99.90
24664;DHT22;12791;50.992;13.788;2023-02-19T10:50:24;6.30;99.90
24664;DHT22;12791;50.992;13.788;2023-02-19T10:52:52;6.30;99.90
24664;DHT22;12791;50.992;13.788;2023-02-19T10:55:27;6.50;99.90
24664;DHT22;12791;50.992;13.788;2023-02-19T10:57:54;6.50;99.90
24664;DHT22;12791;50.992;13.788;2023-02-19T11:00:23;6.60;99.90
24664;DHT22;12791;50.992;13.788;2023-02-19T11:03:13;6.50;99.90
24664;DHT22;12791;50.992;13.788;2023-02-19T11:05:50;6.40;99.90
24664;DHT22;12791;50.992;13.788;2023-02-19T11:08:21;6.40;99.90
24664;DHT22;12791;50.992;13.788;2023-02-19T11:10:48;6.50;99.90
24664;DHT22;12791;50.992;13.788;2023-02-19T11:13:19;6.50;99.90
24664;DHT22;12791;50.992;13.788;2023-02-19T11:15:50;6.60;99.90
24664;DHT22;12791;50.992;13.788;2023-02-19T11:18:21;6.50;99.90
24664;DHT22;12791;50.992;13.788;2023-02-19T11:20:51;6.30;99.90
24664;DHT22;12791;50.992;13.788;2023-02-19T11:23:22;6.40;99.90
24664;DHT22;12791;50.992;13.788;2023-02-19T11:25:51;6.50;99.90
24664;DHT22;12791;50.992;13.788;2023-02-19T11:28:31;6.40;99.90
24664;DHT22;12791;50.992;13.788;2023-02-19T11:31:20;6.50;99.90
24664;DHT22;12791;50.992;13.788;2023-02-19T11:33:53;6.70;99.90
24664;DHT22;12791;50.992;13.788;2023-02-19T11:36:27;6.60;99.90
24664;DHT22;12791;50.992;13.788;2023-02-19T11:38:54;6.50;99.90
24664;DHT22;12791;50.992;13.788;2023-02-19T11:41:40;6.30;99.90
24664;DHT22;12791;50.992;13.788;2023-02-19T11:44:22;6.50;99.90
24664;DHT22;12791;50.992;13.788;2023-02-19T11:47:04;6.50;99.90
24664;DHT22;12791;50.992;13.788;2023-02-19T11:49:42;6.50;99.90
24664;DHT22;12791;50.992;13.788;2023-02-19T11:52:21;6.50;99.90
24664;DHT22;12791;50.992;13.788;2023-02-19T11:54:54;6.50;99.90
24664;DHT22;12791;50.992;13.788;2023-02-19T11:57:38;6.50;99.90
24664;DHT22;12791;50.992;13.788;2023-02-19T12:00:23;6.50;99.90
24664;DHT22;12791;50.992;13.788;2023-02-19T12:03:16;6.60;99.90
24664;DHT22;12791;50.992;13.788;2023-02-19T12:06:00;6.70;99.90
24664;DHT22;12791;50.992;13.788;2023-02-19T12:08:54;6.40;99.90
24664;DHT22;12791;50.992;13.788;2023-02-19T12:11:35;6.60;99.90
24664;DHT22;12791;50.992;13.788;2023-02-19T12:14:31;6.70;99.90
24664;DHT22;12791;50.992;13.788;2023-02-19T12:17:04;6.60;99.90
24664;DHT22;12791;50.992;13.788;2023-02-19T12:19:43;6.60;99.90
24664;DHT22;12791;50.992;13.788;2023-02-19T12:22:28;6.60;99.90
24664;DHT22;12791;50.992;13.788;2023-02-19T12:25:16;6.70;99.90
24664;DHT22;12791;50.992;13.788;2023-02-19T12:27:56;6.70;99.90
24664;DHT22;12791;50.992;13.788;2023-02-19T12:30:41;6.90;99.90
24664;DHT22;12791;50.992;13.788;2023-02-19T12:33:30;6.70;99.90
24664;DHT22;12791;50.992;13.788;2023-02-19T12:36:07;6.70;99.90
24664;DHT22;12791;50.992;13.788;2023-02-19T12:38:42;6.80;99.90
24664;DHT22;12791;50.992;13.788;2023-02-19T12:41:18;6.70;99.90
24664;DHT22;12791;50.992;13.788;2023-02-19T12:43:53;6.70;99.90
24664;DHT22;12791;50.992;13.788;2023-02-19T12:46:26;6.70;99.90
24664;DHT22;12791;50.992;13.788;2023-02-19T12:48:56;6.70;99.90
24664;DHT22;12791;50.992;13.788;2023-02-19T12:51:26;6.60;99.90
24664;DHT22;12791;50.992;13.788;2023-02-19T12:53:57;6.90;99.90
24664;DHT22;12791;50.992;13.788;2023-02-19T12:56:29;6.80;99.90
24664;DHT22;12791;50.992;13.788;2023-02-19T12:59:03;6.90;99.90
24664;DHT22;12791;50.992;13.788;2023-02-19T13:01:33;7.00;99.90
24664;DHT22;12791;50.992;13.788;2023-02-19T13:04:21;6.90;99.90
24664;DHT22;12791;50.992;13.788;2023-02-19T13:06:51;7.00;99.90
24664;DHT22;12791;50.992;13.788;2023-02-19T13:09:23;7.00;99.90
24664;DHT22;12791;50.992;13.788;2023-02-19T13:11:57;6.80;99.90
24664;DHT22;12791;50.992;13.788;2023-02-19T13:14:28;6.90;99.90
24664;DHT22;12791;50.992;13.788;2023-02-19T13:17:00;7.10;99.90
24664;DHT22;12791;50.992;13.788;2023-02-19T13:19:29;7.10;99.90
24664;DHT22;12791;50.992;13.788;2023-02-19T13:22:02;7.10;99.90
24664;DHT22;12791;50.992;13.788;2023-02-19T13:24:49;7.00;99.90
24664;DHT22;12791;50.992;13.788;2023-02-19T13:27:40;7.00;99.90
24664;DHT22;12791;50.992;13.788;2023-02-19T13:30:28;7.00;99.90
24664;DHT22;12791;50.992;13.788;2023-02-19T13:33:02;7.00;99.90
24664;DHT22;12791;50.992;13.788;2023-02-19T13:36:01;7.10;99.90
24664;DHT22;12791;50.992;13.788;2023-02-19T13:38:31;6.90;99.90
24664;DHT22;12791;50.992;13.788;2023-02-19T13:40:59;6.50;99.90
24664;DHT22;12791;50.992;13.788;2023-02-19T13:43:28;6.80;99.90
24664;DHT22;12791;50.992;13.788;2023-02-19T13:45:57;6.90;99.90
24664;DHT22;12791;50.992;13.788;2023-02-19T13:48:27;6.80;99.90
24664;DHT22;12791;50.992;13.788;2023-02-19T13:51:37;6.80;99.90
24664;DHT22;12791;50.992;13.788;2023-02-19T13:54:18;7.00;99.90
24664;DHT22;12791;50.992;13.788;2023-02-19T13:56:47;6.80;99.90
24664;DHT22;12791;50.992;13.788;2023-02-19T13:59:32;6.60;99.90
24664;DHT22;12791;50.992;13.788;2023-02-19T14:02:11;6.90;99.90
24664;DHT22;12791;50.992;13.788;2023-02-19T14:04:57;6.70;99.90
24664;DHT22;12791;50.992;13.788;2023-02-19T14:10:53;6.80;99.90
24664;DHT22;12791;50.992;13.788;2023-02-19T14:13:57;7.00;99.90
24664;DHT22;12791;50.992;13.788;2023-02-19T14:16:48;7.20;99.90
24664;DHT22;12791;50.992;13.788;2023-02-19T14:28:22;6.80;99.90
24664;DHT22;12791;50.992;13.788;2023-02-19T14:30:54;7.00;99.90
24664;DHT22;12791;50.992;13.788;2023-02-19T14:33:23;6.90;99.90
24664;DHT22;12791;50.992;13.788;2023-02-19T14:35:53;7.00;99.90
24664;DHT22;12791;50.992;13.788;2023-02-19T14:38:23;7.00;99.90
24664;DHT22;12791;50.992;13.788;2023-02-19T14:40:52;7.00;99.90
24664;DHT22;12791;50.992;13.788;2023-02-19T14:43:21;6.80;99.90
24664;DHT22;12791;50.992;13.788;2023-02-19T14:45:51;7.10;99.90
24664;DHT22;12791;50.992;13.788;2023-02-19T14:48:23;7.00;99.90
24664;DHT22;12791;50.992;13.788;2023-02-19T14:50:54;7.00;99.90
24664;DHT22;12791;50.992;13.788;2023-02-19T14:53:23;7.00;99.90
24664;DHT22;12791;50.992;13.788;2023-02-19T14:55:53;6.80;99.90
24664;DHT22;12791;50.992;13.788;2023-02-19T14:58:24;7.00;99.90
24664;DHT22;12791;50.992;13.788;2023-02-19T15:00:51;7.00;99.90
24664;DHT22;12791;50.992;13.788;2023-02-19T15:03:28;6.50;99.90
24664;DHT22;12791;50.992;13.788;2023-02-19T15:05:58;6.90;99.90
24664;DHT22;12791;50.992;13.788;2023-02-19T15:08:30;6.80;99.90
24664;DHT22;12791;50.992;13.788;2023-02-19T15:10:59;6.80;99.90
24664;DHT22;12791;50.992;13.788;2023-02-19T15:13:27;7.00;99.90
24664;DHT22;12791;50.992;13.788;2023-02-19T15:15:54;6.70;99.90
24664;DHT22;12791;50.992;13.788;2023-02-19T15:18:23;6.70;99.90
24664;DHT22;12791;50.992;13.788;2023-02-19T15:20:58;6.70;99.90
24664;DHT22;12791;50.992;13.788;2023-02-19T15:23:26;6.70;99.90
24664;DHT22;12791;50.992;13.788;2023-02-19T15:25:55;6.50;99.90
24664;DHT22;12791;50.992;13.788;2023-02-19T15:28:31;6.70;99.90
24664;DHT22;12791;50.992;13.788;2023-02-19T15:31:09;6.60;99.90
24664;DHT22;12791;50.992;13.788;2023-02-19T15:33:37;6.70;99.90
24664;DHT22;12791;50.992;13.788;2023-02-19T15:36:07;6.80;99.90
24664;DHT22;12791;50.992;13.788;2023-02-19T15:38:34;6.70;99.90
24664;DHT22;12791;50.992;13.788;2023-02-19T15:41:01;6.60;99.90
24664;DHT22;12791;50.992;13.788;2023-02-19T15:43:32;6.50;99.90
24664;DHT22;12791;50.992;13.788;2023-02-19T15:46:04;6.70;99.90
24664;DHT22;12791;50.992;13.788;2023-02-19T15:48:38;6.60;99.90
24664;DHT22;12791;50.992;13.788;2023-02-19T15:51:12;6.50;99.90
24664;DHT22;12791;50.992;13.788;2023-02-19T15:53:44;6.50;99.90
24664;DHT22;12791;50.992;13.788;2023-02-19T15:56:17;6.50;99.90
24664;DHT22;12791;50.992;13.788;2023-02-19T15:58:48;6.60;99.90
24664;DHT22;12791;50.992;13.788;2023-02-19T16:01:19;6.50;99.90
24664;DHT22;12791;50.992;13.788;2023-02-19T16:03:46;6.50;99.90
24664;DHT22;12791;50.992;13.788;2023-02-19T16:06:16;6.50;99.90
24664;DHT22;12791;50.992;13.788;2023-02-19T16:08:44;6.60;99.90